Main page
METAR-TAF:

METAR-TAF

Airports :

Gällivare Lapland Airport

Gällivare, Sweden

latitude: 67-09N, longitude: 020-39E, elevation: 359 m

Current weather observation

The report was made 41 minutes ago, at 22:20 UTC
Wind 3 kt from the West/Northwest
Temperature -9°C
Humidity 92%
Pressure 1026 hPa
Visibility 10 km or more
Overcast at a height of 600 ft

METAR: ESNG 212220Z 30003KT 9999 OVC006 M09/M10 Q1026

Time: 00:01 (23:01 UTC)

Forecast

The report was made 5 hours and 31 minutes ago, at 17:30 UTC
Forecast valid from 21 at 18 UTC to 21 at 22 UTC
Wind 4 kt from the North
Visibility 10 km or more
Overcast at a height of 600 ft
Probability 40%
from 21 at 18 UTC to 21 at 21 UTC
Visibility: 0200 m
at a height of 200 ft
freezing fog

TAF: ESNG 211730Z 2118/2122 35004KT 9999 OVC006 PROB40 2118/2121 0200 FZFG VV002

Weather observations and forecasts of more than 4000 airports (METAR and TAF reports).

The available stations are represented by yellow and red dots on the map.

Hover mouse over dot to see the name of the station.

Then click to see weather observations and forecasts.

To change the map : click on the green buttons with a black cross to zoom in, on the green button with a dash to zoom out, or on the green arrows for adjacent maps.


METAR-TAF: